Terminal Aerodrome Forecast
Issued by NWS

Home | Current Version | Previous Version | Text Only | Print | Product List | Glossary On
Versions: 1 2 3 4 5 6 7 8 9 10 11 12 13 14 15 16
253
FTUS43 KICT 171438 AAA
TAFCNU
TAF AMD
KCNU 171438Z 1715/1812 19007KT 1 1/2SM BR OVC003
      TEMPO 1715/1718 4SM BR OVC007
     FM171800 21007KT P6SM SCT010 OVC025=

USA.gov is the U.S. government's official web portal to all federal, state and local government web resources and services.